Go Pro

Invesco BulletShares 2030 Corporate Bond ETF (BSCU) Institutional Ownership

Invesco BulletShares 2030 Corporate Bond ETF logo
$16.48 +0.04 (+0.21%)
As of 12:57 PM Eastern
This is a fair market value price provided by Massive. Learn more.

Institutional Ownership Changes (13F Filings) for Invesco BulletShares 2030 Corporate Bond ETF (NASDAQ:BSCU)

Number of
Institutional Buyers
(last 12 months)
233
Total
Institutional Inflows
(last 12 months)
$570.06M
Number of
Institutional Sellers
(last 12 months)
43
Total
Institutional Outflows
(last 12 months)
$52.39M
Get BSCU Insider Trade Alerts

Want to know when executives and insiders are buying or selling Invesco BulletShares 2030 Corporate Bond ETF stock? Sign up for InsiderTrades.com's daily newsletter to get the latest insider transactions delivered to your inbox daily.

SMS is currently available in Australia, Belgium, Canada, France, Germany, Ireland, Italy, New Zealand, the Netherlands, Singapore, South Africa, Spain, Switzerland, the United Kingdom, and the United States. By entering your phone number and clicking the sign-up button, you agree to receive periodic text messages from MarketBeat at the phone number you submitted, including texts that may be sent using an automatic telephone dialing system. Message and data rates may apply. Message frequency will vary. Messages will consist of stock alerts, news stories, and partner advertisements/offers. Consent is not a condition of the purchase of any goods or services. Text HELP for help/customer support. Unsubscribe at any time by replying "STOP" to any text message that you receive from MarketBeat or by visiting our mailing preferences page. Read our full terms of service and privacy policy.
Skip Chart & View Institutional Buying and Selling Data

BSCU Institutional Buying and Selling by Quarter

Invesco BulletShares 2030 Corporate Bond ETF Major Shareholders & Ownership History

Reporting DateMajor Shareholder NameShares HeldMarket Value% of PortfolioQuarterly Change in SharesOwnership in CompanyDetails
9/2/2026Kinetic Wealth Investment Advisors LLC206,013$3.43M1.6%N/A0.128%
9/2/2026 Citadel Advisors LLC148,829$2.48M0.0%-59.0%0.092%
8/23/2026 Straight Path Wealth Management272,762$4.54M1.1%+0.4%0.169%
8/23/2026 Wedmont Private Capital35,440$588K0.0%N/A0.022%
8/23/2026 Kintra Wealth LLC271,226$4.50M0.2%N/A0.168%
8/23/2026 Semitam Bonam LLC112,913$1.88M1.4%+3.9%0.070%
7/10/2026 Butensky & Cohen Financial Security Inc.99,772$1.66M0.4%+5.1%0.063%
7/10/2026 Whitener Capital Management Inc.108,110$1.80M0.4%+113.8%0.068%
7/10/2026 City Holding Co.54,468$906K0.1%N/A0.034%
7/9/2026 Sax Wealth Advisors LLC49,477$827K0.0%+32.9%0.031%
7/9/2026 Oliver Luxxe Assets LLC80,501$1.34M0.2%+25.6%0.051%
7/9/2026 Everpar Advisors LLC91,642$1.53M0.4%+12.4%0.058%
7/9/2026 Legacy Wealth Management LLC MS41,793$696K0.2%+21.6%0.027%
7/9/2026 Ledgewood Wealth Advisors LLC327,512$5.45M2.9%+13.0%0.208%
7/8/2026 RVW Wealth LLC10,816$180K0.0%N/A0.007%
7/8/2026 Apella Capital LLC62,194$1.03M0.0%+1.6%0.039%
7/8/2026 Red Spruce Capital LLC203,038$3.38M1.2%+140.4%0.129%
7/8/2026 Clark Asset Management LLC1,398,237$23.27M1.8%+20.8%0.888%
7/7/2026 Dynamic Advisor Solutions LLC157,777$2.63M0.1%+26.6%0.100%
7/7/2026 Tlwm1,851,064$30.81M5.0%+2.5%1.175%
7/7/2026 Avior Wealth Management LLC166,829$2.78M0.1%+1.2%0.106%
7/6/2026 Somerset Trust Co11,308$188K0.1%N/A0.007%
6/3/2026 NewEdge Advisors LLC571,449$9.55M0.0%+183.6%0.381%
6/1/2026 Keel Point LLC49,027$820K0.1%+14.8%0.033%
5/29/2026 Asset Dedication LLC717,414$12.00M0.8%+11.1%0.478%
5/27/2026 Allen Capital Group LLC36,822$616K0.1%-6.8%0.025%
5/22/2026Coastline Complete Wealth LLC231,668$3.87M2.4%+19.6%0.154%
5/19/2026 Bank of America Corp DE2,780,691$46.49M0.0%+11.5%1.854%
5/19/2026 Arkadios Wealth Advisors21,698$363K0.0%+8.4%0.014%
5/18/2026 Royal Bank of Canada2,639,665$44.13M0.0%+5.5%1.760%
5/15/2026 Gateway Wealth Partners LLC10,992$184K0.0%N/A0.007%
5/14/2026 Modern Wealth Management LLC374,410$6.26M0.1%-0.7%0.250%
5/14/2026 Davis R M Inc.808,747$13.52M0.2%+10.7%0.539%
5/14/2026 Lido Advisors LLC8,438,015$141.08M0.4%+7.5%5.625%
5/13/2026 Cetera Investment Advisers366,431$6.13M0.0%+42.3%0.244%
5/13/2026 Goepper Burkhardt LLC617,619$10.33M3.5%+5.9%0.412%
5/7/2026 Hanover Advisors Inc.54,808$916K0.4%+9.9%0.037%
5/7/2026 Commonwealth Financial Services LLC11,671$195K0.0%N/A0.008%
5/7/2026 Continuum Wealth Advisors LLC63,519$1.06M0.4%+7.1%0.042%
5/7/2026 Pacific Wealth Strategies Group Inc.10,000$167K0.1%N/A0.007%
The $15 Gold Fund That Pays Up to $1,152/Month (Ad)

Gold is hitting record highs, but most investors are leaving income on the table. A $15 fund is quietly paying out up to $1,152 a month to regular investors - no mining stocks, no options, no physical metal required. Chief Income Strategist Tim Plaehn calls it a breakthrough strategy that transforms gold's rally into reliable monthly payouts. The next distribution is just days away.tc pixel

Discover the gold income fund before the next payout date
5/7/2026 Decker Wealth Management LLC430,184$7.19M1.6%N/A0.287%
5/6/2026 IMA Advisory Services Inc.1,448,572$24.22M2.4%+2.3%0.966%
5/6/2026 Independent Financial Group LLC33,561$561K0.0%N/A0.022%
5/5/2026 Geneos Wealth Management Inc.234,725$3.93M0.1%+5.3%0.156%
5/5/2026 Sanctuary Advisors LLC453,873$7.59M0.0%+7.5%0.303%
5/5/2026 Sigma Planning Corp47,928$801K0.0%-10.7%0.032%
5/4/2026 Milestones Private Investment Advisors LLC153,787$2.57M2.3%-0.6%0.103%
5/4/2026 Empirical Financial Services LLC d.b.a. Empirical Wealth Management200,282$3.35M0.1%+1.4%0.134%
5/4/2026 Parr Mcknight Wealth Management Group LLC350,831$5.87M0.8%+38.8%0.234%
5/2/2026Anchor Investment Management LLC9,835$164K0.0%N/A0.007%
5/2/2026 Diversify Wealth Management LLC19,316$322K0.0%N/A0.013%
5/2/2026 Valmark Advisers Inc.16,281$272K0.0%+27.6%0.011%
5/2/2026 Carnegie Investment Counsel241,190$4.03M0.1%+35.8%0.161%
5/2/2026 SFE Investment Counsel257,115$4.30M0.7%+9.4%0.171%
5/1/2026 Fifth Third Bancorp41,397$692K0.0%+4,863.7%0.028%
5/1/2026 Sequoia Financial Advisors LLC31,584$528K0.0%+16.8%0.021%
5/1/2026 Independence Bank of Kentucky76,975$1.29M0.2%+9.8%0.051%
4/30/2026 First Horizon Corp17,745$297K0.0%-4.3%0.012%
4/30/2026 Kestra Advisory Services LLC457,911$7.66M0.0%+3.2%0.305%
4/29/2026 Cvfg LLC670,503$11.21M1.4%N/A0.447%
4/29/2026 ArborFi Advisors LLC78,641$1.32M1.1%+5.8%0.052%
4/29/2026 Greatmark Investment Partners Inc.15,285$256K0.0%+37.1%0.010%
4/28/2026 Ascentis Independent Advisors2,125$36K0.0%N/A0.001%
4/28/2026 Stephens Inc. AR313,580$5.24M0.1%+4.3%0.211%
4/27/2026 Apeiron RIA LLC70,946$1.19M0.3%+21.7%0.048%
4/27/2026 HB Wealth Management LLC21,030$352K0.0%+32.8%0.014%
4/27/2026 Private Advisor Group LLC155,486$2.60M0.0%+70.9%0.104%
4/25/2026 Livet Wealth LLC80,260$1.34M0.9%+15.3%0.054%
4/25/2026 GPM Growth Investors Inc.457,241$7.65M3.2%+3.7%0.307%
4/24/2026 American Institute for Advanced Investment Management LLP22,830$382K0.2%+65.2%0.015%
4/24/2026 Key Financial Inc49,989$836K0.1%+2.5%0.034%
4/23/2026 Kohmann Bosshard Financial Services LLC109,969$1.84M0.2%+1.5%0.074%
4/23/2026 Capital Investment Counsel LLC1,168,992$19.54M2.7%+12.6%0.786%
4/22/2026 Janney Montgomery Scott LLC648,957$10.85M0.0%+30.8%0.438%
4/22/2026 Wilkins Miller Wealth Management LLC366,781$6.13M3.7%+7.0%0.248%
4/22/2026 Semitam Bonam LLC108,645$1.82M1.5%+12.2%0.073%
4/21/2026 Maridea Wealth Management LLC11,757$197K0.0%N/A0.008%
4/21/2026 AA Financial Advisors LLC73,033$1.22M0.2%+128.8%0.049%
4/21/2026 OLD National Bancorp IN21,138$353K0.0%N/A0.014%
4/20/2026 Kestra Private Wealth Services LLC76,562$1.28M0.0%-2.0%0.052%
4/20/2026 RFG Advisory LLC10,765$180K0.0%N/A0.007%
4/20/2026 Apella Capital LLC61,219$1.03M0.0%-3.2%0.041%
4/20/2026 Gilbert Capital Group Inc.21,075$352K0.3%-4.4%0.014%
4/18/2026 BCS Wealth Management279,332$4.67M1.0%-49.7%0.188%
4/17/2026 Kirr Marbach & Co. LLC IN689,400$11.53M2.1%+5.5%0.465%
4/17/2026 First City Capital Management Inc.51,825$866K0.5%+50.9%0.035%
4/17/2026 AdvisorNet Financial Inc3,433$57K0.0%+191.9%0.002%
4/17/2026 Novare Capital Management LLC200,631$3.35M0.3%+2.2%0.135%
4/17/2026 Webster Bank N. A.11,757$197K0.0%N/A0.008%
4/17/2026 Clark Asset Management LLC1,157,736$19.36M1.8%+21.7%0.780%
The REAL Reason Trump is Invading Iran (Ad)

For a moment… Forget about Trump’s ties to Israel. Forget about reports of Iran’s nuclear program. Because my research has led me to believe we’re risking World War 3 with Iran for a completely different reason.tc pixel

Click here to find out what it is.
4/17/2026 Brookstone Capital Management1,903,876$31.83M0.4%+1.8%1.283%
4/16/2026True Vision MN LLC118,937$1.99M1.0%+2.8%0.080%
4/16/2026 Evexia Wealth LLC68,367$1.15M0.3%+17.3%0.046%
3/17/2026 Cornerstone Planning LLC426,805$7.23M1.6%N/A0.302%
2/25/2026 Tempo Wealth LLC42,290$716K0.1%N/A0.030%
2/24/2026Coastline Complete Wealth LLC193,748$3.28M2.1%N/A0.137%
2/19/2026 Compound Planning Inc.17,455$295K0.0%-28.5%0.012%
2/19/2026 Invesco Ltd.4,233,963$71.64M0.0%+35.4%3.000%
2/18/2026 Mercer Global Advisors Inc. ADV19,410$328K0.0%-42.5%0.014%
2/18/2026 Beacon Pointe Advisors LLC108,166$1.83M0.0%+837.6%0.077%


BSCU Institutional Ownership - Frequently Asked Questions

During the previous two years, 307 institutional investors and hedge funds held shares of Invesco BulletShares 2030 Corporate Bond ETF. The most heavily invested institutionals were Morgan Stanley ($162.42M), Aptus Capital Advisors LLC ($153.30M), Lido Advisors LLC ($141.08M), LPL Financial LLC ($85.75M), Raymond James Financial Inc. ($82.53M), TruWealth Advisors LLC ($76.97M), and Invesco Ltd. ($71.64M).Learn more on Invesco BulletShares 2030 Corporate Bond ETF's institutional investors.

Of the 300 institutional investors that purchased Invesco BulletShares 2030 Corporate Bond ETF's stock in the last 24 months, the following investors and hedge funds have bought the highest volume of shares: Aptus Capital Advisors LLC ($6.15M), Raymond James Financial Inc. ($4.88M), TruWealth Advisors LLC ($4.55M), Lido Advisors LLC ($4.27M), Hills Bank & Trust Co ($2.23M), LPL Financial LLC ($1.93M), and Brookstone Capital Management ($1.90M).

Institutional investors have bought a total of 33,772,144 shares in the last 24 months. This purchase volume represents approximately $570.06M in transactions.

Of the 43 institutional investors that sold Invesco BulletShares 2030 Corporate Bond ETF's stock in the last 24 months, the following investors and hedge funds have sold the highest volume of shares: Tradewinds Capital Management LLC ($1.04M), Truist Financial Corp ($369.56K), Citadel Advisors LLC ($352.85K), BCS Wealth Management ($286.48K), Motley Fool Wealth Management LLC ($192.45K), Laurel Wealth Advisors LLC ($153.25K), and Evexia Wealth LLC ($135.83K).

Institutional investors have sold a total of 3,104,078 shares in the last 24 months. This volume of shares sold represents approximately $52.39M in transactions.



Institutional ownership data for NASDAQ:BSCU is compiled from quarterly 13F filings submitted to the U.S. Securities and Exchange Commission (SEC), with the most recent received on 9/2/2026. New 13F filings are added each quarter as they're published.
From Our Partners